createdAt,value
2019-06-26T00:00:20.744Z,1011.80
2019-06-26T00:01:20.730Z,1011.78
2019-06-26T00:02:20.722Z,1011.74
2019-06-26T00:03:20.814Z,1011.78
2019-06-26T00:05:20.689Z,1011.75
2019-06-26T00:06:20.798Z,1011.73
2019-06-26T00:07:20.666Z,1011.72
2019-06-26T00:08:20.754Z,1011.71
2019-06-26T00:09:20.738Z,1011.73
2019-06-26T00:10:20.640Z,1011.73
2019-06-26T00:11:20.628Z,1011.71
2019-06-26T00:12:20.619Z,1011.71
2019-06-26T00:13:26.163Z,1011.73
2019-06-26T00:14:20.588Z,1011.74
2019-06-26T00:15:20.571Z,1011.72
2019-06-26T00:16:20.565Z,1011.72
2019-06-26T00:17:20.558Z,1011.72
2019-06-26T00:18:20.553Z,1011.69
2019-06-26T00:19:21.297Z,1011.67
2019-06-26T00:20:23.849Z,1011.73
2019-06-26T00:21:22.040Z,1011.71
2019-06-26T00:22:20.493Z,1011.73
2019-06-26T00:23:20.482Z,1011.69
2019-06-26T00:24:20.564Z,1011.73
2019-06-26T00:25:20.563Z,1011.69
2019-06-26T00:26:20.447Z,1011.67
2019-06-26T00:27:20.434Z,1011.69
2019-06-26T00:28:20.433Z,1011.67
2019-06-26T00:30:20.405Z,1011.64
2019-06-26T00:31:20.455Z,1011.65
2019-06-26T00:32:20.489Z,1011.66
2019-06-26T00:33:20.523Z,1011.64
2019-06-26T00:34:20.358Z,1011.64
2019-06-26T00:35:20.413Z,1011.63
2019-06-26T00:36:20.330Z,1011.63
2019-06-26T00:37:20.317Z,1011.62
2019-06-26T00:38:20.311Z,1011.63
2019-06-26T00:39:20.301Z,1011.64
2019-06-26T00:40:20.292Z,1011.63
2019-06-26T00:41:20.274Z,1011.60
2019-06-26T00:42:20.260Z,1011.62
2019-06-26T00:43:20.255Z,1011.65
2019-06-26T00:44:20.249Z,1011.62
2019-06-26T00:45:20.225Z,1011.62
2019-06-26T00:46:20.278Z,1011.59
2019-06-26T00:47:20.248Z,1011.62
2019-06-26T00:48:20.492Z,1011.61
2019-06-26T00:49:20.290Z,1011.63
2019-06-26T00:50:20.398Z,1011.62
2019-06-26T00:51:20.164Z,1011.63
2019-06-26T00:52:20.151Z,1011.64
2019-06-26T00:53:20.237Z,1011.65
2019-06-26T00:54:20.118Z,1011.66
2019-06-26T00:56:20.101Z,1011.60
2019-06-26T00:57:20.089Z,1011.67
2019-06-26T00:58:20.088Z,1011.62
2019-06-26T00:59:20.074Z,1011.67
2019-06-26T01:00:20.130Z,1011.68
2019-06-26T01:01:20.051Z,1011.69
2019-06-26T01:02:20.032Z,1011.67
2019-06-26T01:03:20.124Z,1011.62
2019-06-26T01:04:20.325Z,1011.66
2019-06-26T01:05:20.071Z,1011.63
2019-06-26T01:06:19.988Z,1011.62
2019-06-26T01:07:20.081Z,1011.65
2019-06-26T01:08:20.133Z,1011.63
2019-06-26T01:09:19.960Z,1011.66
2019-06-26T01:10:20.291Z,1011.62
2019-06-26T01:11:21.687Z,1011.61
2019-06-26T01:12:19.943Z,1011.57
2019-06-26T01:13:19.937Z,1011.59
2019-06-26T01:14:19.886Z,1011.59
2019-06-26T01:15:20.046Z,1011.59
2019-06-26T01:16:19.965Z,1011.59
2019-06-26T01:17:20.041Z,1011.58
2019-06-26T01:18:20.330Z,1011.56
2019-06-26T01:19:20.536Z,1011.57
2019-06-26T01:20:19.866Z,1011.55
2019-06-26T01:21:19.803Z,1011.55
2019-06-26T01:22:19.799Z,1011.54
2019-06-26T01:23:20.043Z,1011.57
2019-06-26T01:25:19.913Z,1011.57
2019-06-26T01:26:20.150Z,1011.56
2019-06-26T01:27:19.975Z,1011.57
2019-06-26T01:28:20.268Z,1011.55
2019-06-26T01:29:20.161Z,1011.57
2019-06-26T01:30:20.403Z,1011.58
2019-06-26T01:31:20.083Z,1011.57
2019-06-26T01:32:19.669Z,1011.57
2019-06-26T01:33:19.854Z,1011.59
2019-06-26T01:35:19.651Z,1011.56
2019-06-26T01:36:19.835Z,1011.54
2019-06-26T01:37:20.012Z,1011.56
2019-06-26T01:38:20.036Z,1011.54
2019-06-26T01:39:19.705Z,1011.56
2019-06-26T01:40:19.589Z,1011.53
2019-06-26T01:41:19.665Z,1011.54
2019-06-26T01:42:19.829Z,1011.54
2019-06-26T01:43:20.167Z,1011.55
2019-06-26T01:44:19.729Z,1011.58
2019-06-26T01:45:19.519Z,1011.56
2019-06-26T01:46:19.686Z,1011.57
2019-06-26T01:47:19.587Z,1011.58
2019-06-26T01:48:19.541Z,1011.55
2019-06-26T01:49:20.129Z,1011.61
2019-06-26T01:50:19.524Z,1011.59
2019-06-26T01:51:19.484Z,1011.56
2019-06-26T01:52:20.144Z,1011.54
2019-06-26T01:53:19.524Z,1011.58
2019-06-26T01:54:19.417Z,1011.55
2019-06-26T01:56:19.405Z,1011.54
2019-06-26T01:57:19.526Z,1011.55
2019-06-26T01:58:19.371Z,1011.55
2019-06-26T01:59:19.351Z,1011.51
2019-06-26T02:01:19.994Z,1011.54
2019-06-26T02:02:19.321Z,1011.56
2019-06-26T02:03:19.400Z,1011.58
2019-06-26T02:04:19.301Z,1011.57
2019-06-26T02:05:19.373Z,1011.59
2019-06-26T02:06:19.261Z,1011.58
2019-06-26T02:07:19.250Z,1011.59
2019-06-26T02:08:19.542Z,1011.60
2019-06-26T02:09:19.431Z,1011.62
2019-06-26T02:10:19.259Z,1011.61
2019-06-26T02:11:19.203Z,1011.61
2019-06-26T02:12:19.445Z,1011.65
2019-06-26T02:15:19.160Z,1011.65
2019-06-26T02:16:19.148Z,1011.62
2019-06-26T02:17:19.236Z,1011.64
2019-06-26T02:18:19.120Z,1011.65
2019-06-26T02:20:19.094Z,1011.64
2019-06-26T02:21:19.104Z,1011.62
2019-06-26T02:22:19.420Z,1011.64
2019-06-26T02:27:19.018Z,1011.62
2019-06-26T02:28:19.000Z,1011.60
2019-06-26T02:29:19.288Z,1011.58
2019-06-26T02:30:18.981Z,1011.59
2019-06-26T02:31:19.068Z,1011.62
2019-06-26T02:32:18.969Z,1011.59
2019-06-26T02:33:18.986Z,1011.60
2019-06-26T02:34:18.930Z,1011.63
2019-06-26T02:35:18.912Z,1011.65
2019-06-26T02:36:19.233Z,1011.62
2019-06-26T02:37:18.891Z,1011.64
2019-06-26T02:38:18.886Z,1011.70
2019-06-26T02:39:18.873Z,1011.67
2019-06-26T02:40:18.857Z,1011.67
2019-06-26T02:41:18.914Z,1011.66
2019-06-26T02:42:18.915Z,1011.69
2019-06-26T02:43:19.117Z,1011.67
2019-06-26T02:44:18.805Z,1011.66
2019-06-26T02:45:18.997Z,1011.67
2019-06-26T02:46:18.877Z,1011.67
2019-06-26T02:47:20.836Z,1011.66
2019-06-26T02:48:18.806Z,1011.67
2019-06-26T02:49:18.761Z,1011.66
2019-06-26T02:51:19.222Z,1011.60
2019-06-26T02:52:18.707Z,1011.61
2019-06-26T02:53:18.697Z,1011.56
2019-06-26T02:54:18.692Z,1011.56
2019-06-26T02:55:18.771Z,1011.58
2019-06-26T02:56:18.659Z,1011.57
2019-06-26T02:57:18.950Z,1011.57
2019-06-26T02:58:18.641Z,1011.60
2019-06-26T02:59:18.629Z,1011.59
2019-06-26T03:00:18.621Z,1011.58
2019-06-26T03:01:18.934Z,1011.63
2019-06-26T03:02:18.603Z,1011.64
2019-06-26T03:03:18.874Z,1011.62
2019-06-26T03:04:18.662Z,1011.62
2019-06-26T03:05:18.698Z,1011.63
2019-06-26T03:06:18.549Z,1011.63
2019-06-26T03:07:18.528Z,1011.63
2019-06-26T03:08:18.509Z,1011.63
2019-06-26T03:09:18.801Z,1011.64
2019-06-26T03:10:18.644Z,1011.66
2019-06-26T03:11:18.473Z,1011.64
2019-06-26T03:12:18.598Z,1011.63
2019-06-26T03:13:18.576Z,1011.61
2019-06-26T03:14:18.433Z,1011.65
2019-06-26T03:15:19.025Z,1011.65
2019-06-26T03:16:18.510Z,1011.67
2019-06-26T03:17:18.496Z,1011.70
2019-06-26T03:18:18.383Z,1011.69
2019-06-26T03:19:18.377Z,1011.68
2019-06-26T03:20:18.458Z,1011.70
2019-06-26T03:21:18.649Z,1011.70
2019-06-26T03:23:18.319Z,1011.73
2019-06-26T03:24:18.314Z,1011.73
2019-06-26T03:26:18.281Z,1011.71
2019-06-26T03:27:18.672Z,1011.75
2019-06-26T03:29:18.253Z,1011.76
2019-06-26T03:30:18.291Z,1011.76
2019-06-26T03:32:18.278Z,1011.83
2019-06-26T03:33:18.499Z,1011.79
2019-06-26T03:34:18.317Z,1011.75
2019-06-26T03:35:18.173Z,1011.76
2019-06-26T03:36:18.163Z,1011.77
2019-06-26T03:37:18.149Z,1011.73
2019-06-26T03:38:18.154Z,1011.75
2019-06-26T03:39:18.258Z,1011.75
2019-06-26T03:40:18.525Z,1011.74
2019-06-26T03:41:18.209Z,1011.76
2019-06-26T03:42:18.205Z,1011.81
2019-06-26T03:43:18.226Z,1011.81
2019-06-26T03:44:18.099Z,1011.81
2019-06-26T03:45:25.917Z,1011.77
2019-06-26T03:46:18.147Z,1011.80
2019-06-26T03:47:18.391Z,1011.76
2019-06-26T03:48:18.390Z,1011.80
2019-06-26T03:49:18.004Z,1011.75
2019-06-26T03:50:18.048Z,1011.80
2019-06-26T03:51:18.409Z,1011.78
2019-06-26T03:52:18.132Z,1011.79
2019-06-26T03:53:17.962Z,1011.80
2019-06-26T03:54:18.249Z,1011.75
2019-06-26T03:55:18.126Z,1011.77
2019-06-26T03:56:18.024Z,1011.78
2019-06-26T03:57:17.909Z,1011.77
2019-06-26T03:58:18.194Z,1011.82
2019-06-26T03:59:17.980Z,1011.78
2019-06-26T04:00:17.979Z,1011.78
2019-06-26T04:01:18.163Z,1011.81
2019-06-26T04:02:17.845Z,1011.83
2019-06-26T04:03:17.840Z,1011.80
2019-06-26T04:04:17.975Z,1011.82
2019-06-26T04:05:17.813Z,1011.82
2019-06-26T04:06:17.837Z,1011.79
2019-06-26T04:07:17.787Z,1011.76
2019-06-26T04:08:18.072Z,1011.74
2019-06-26T04:09:17.863Z,1011.71
2019-06-26T04:10:17.751Z,1011.78
2019-06-26T04:11:17.738Z,1011.78
2019-06-26T04:13:17.718Z,1011.76
2019-06-26T04:14:17.700Z,1011.78
2019-06-26T04:18:17.969Z,1011.80
2019-06-26T04:19:17.639Z,1011.83
2019-06-26T04:20:17.631Z,1011.79
2019-06-26T04:21:17.617Z,1011.80
2019-06-26T04:22:17.607Z,1011.83
2019-06-26T04:25:17.988Z,1011.76
2019-06-26T04:26:17.663Z,1011.79
2019-06-26T04:28:17.588Z,1011.79
2019-06-26T04:29:17.629Z,1011.85
2019-06-26T04:30:17.519Z,1011.79
2019-06-26T04:31:18.635Z,1011.83
2019-06-26T04:32:17.504Z,1011.81
2019-06-26T04:33:17.635Z,1011.86
2019-06-26T04:34:17.473Z,1011.84
2019-06-26T04:35:17.458Z,1011.87
2019-06-26T04:36:17.463Z,1011.84
2019-06-26T04:37:17.743Z,1011.88
2019-06-26T04:39:17.411Z,1011.91
2019-06-26T04:42:17.389Z,1011.91
2019-06-26T04:43:17.445Z,1011.95
2019-06-26T04:44:18.031Z,1011.89
2019-06-26T04:45:17.406Z,1011.88
2019-06-26T04:46:18.759Z,1011.89
2019-06-26T04:47:17.373Z,1011.89
2019-06-26T04:48:17.927Z,1011.90
2019-06-26T04:49:17.596Z,1011.89
2019-06-26T04:50:17.593Z,1011.86
2019-06-26T04:51:17.277Z,1011.84
2019-06-26T04:52:17.402Z,1011.88
2019-06-26T04:53:17.309Z,1011.91
2019-06-26T04:54:17.619Z,1011.92
2019-06-26T05:02:17.474Z,1012.03
2019-06-26T05:03:29.538Z,1012.04
2019-06-26T05:04:17.137Z,1012.00
2019-06-26T05:05:17.134Z,1012.03
2019-06-26T05:06:17.116Z,1012.00
2019-06-26T05:07:17.402Z,1011.98
2019-06-26T05:09:17.233Z,1011.97
2019-06-26T05:14:17.327Z,1011.99
2019-06-26T05:16:20.034Z,1011.98
2019-06-26T05:17:17.108Z,1011.98
2019-06-26T05:19:16.978Z,1011.99
2019-06-26T05:20:17.010Z,1011.98
2019-06-26T05:21:17.637Z,1012.02
2019-06-26T05:22:17.063Z,1012.00
2019-06-26T05:23:17.284Z,1012.05
2019-06-26T05:24:17.239Z,1012.01
2019-06-26T05:25:16.915Z,1012.00
2019-06-26T05:26:17.002Z,1012.04
2019-06-26T05:27:16.991Z,1012.07
2019-06-26T05:28:17.177Z,1012.07
2019-06-26T05:29:16.874Z,1012.06
2019-06-26T05:30:17.023Z,1012.07
2019-06-26T05:31:17.024Z,1012.08
2019-06-26T05:32:16.837Z,1012.07
2019-06-26T05:33:18.044Z,1012.08
2019-06-26T05:34:17.290Z,1012.11
2019-06-26T05:35:17.106Z,1012.08
2019-06-26T05:36:16.810Z,1012.10
2019-06-26T05:37:16.810Z,1012.08
2019-06-26T05:38:16.782Z,1012.09
2019-06-26T05:39:16.766Z,1012.08
2019-06-26T05:41:17.398Z,1012.11
2019-06-26T05:42:16.756Z,1012.09
2019-06-26T05:43:16.823Z,1012.12
2019-06-26T05:44:16.723Z,1012.10
2019-06-26T05:45:16.768Z,1012.13
2019-06-26T05:46:30.138Z,1012.09
2019-06-26T05:47:16.713Z,1012.15
2019-06-26T05:50:16.960Z,1012.14
2019-06-26T05:51:16.846Z,1012.20
2019-06-26T05:53:17.264Z,1012.19
2019-06-26T05:54:16.799Z,1012.14
2019-06-26T05:55:16.876Z,1012.17
2019-06-26T05:56:16.694Z,1012.20
2019-06-26T05:57:16.955Z,1012.23
2019-06-26T05:58:16.583Z,1012.25
2019-06-26T06:00:16.626Z,1012.25
2019-06-26T06:01:16.549Z,1012.27
2019-06-26T06:03:16.861Z,1012.34
2019-06-26T06:04:16.586Z,1012.28
2019-06-26T06:06:16.768Z,1012.31
2019-06-26T06:07:16.605Z,1012.30
2019-06-26T06:09:16.796Z,1012.29
2019-06-26T06:10:16.803Z,1012.27
2019-06-26T06:11:16.524Z,1012.31
2019-06-26T06:12:16.539Z,1012.36
2019-06-26T06:13:17.100Z,1012.37
2019-06-26T06:14:16.461Z,1012.35
2019-06-26T06:15:16.736Z,1012.40
2019-06-26T06:16:16.694Z,1012.35
2019-06-26T06:17:16.468Z,1012.37
2019-06-26T06:18:16.439Z,1012.39
2019-06-26T06:19:16.738Z,1012.46
2019-06-26T06:22:16.699Z,1012.51
2019-06-26T06:23:16.665Z,1012.59
2019-06-26T06:24:16.476Z,1012.57
2019-06-26T06:26:16.329Z,1012.62
2019-06-26T06:28:16.785Z,1012.63
2019-06-26T06:29:16.935Z,1012.66
2019-06-26T06:30:16.554Z,1012.62
2019-06-26T06:31:16.624Z,1012.68
2019-06-26T06:32:17.083Z,1012.66
2019-06-26T06:33:16.496Z,1012.63
2019-06-26T06:34:16.681Z,1012.69
2019-06-26T06:35:16.230Z,1012.71
2019-06-26T06:36:16.231Z,1012.70
2019-06-26T06:37:16.229Z,1012.76
2019-06-26T06:38:16.384Z,1012.76
2019-06-26T06:39:16.289Z,1012.74
2019-06-26T06:40:16.484Z,1012.78
2019-06-26T06:41:16.525Z,1012.82
2019-06-26T06:42:16.187Z,1012.79
2019-06-26T06:43:16.215Z,1012.83
2019-06-26T06:45:16.134Z,1012.88
2019-06-26T06:46:16.318Z,1012.89
2019-06-26T06:47:16.426Z,1012.93
2019-06-26T06:49:16.247Z,1012.93
2019-06-26T06:51:16.106Z,1012.95
2019-06-26T06:52:16.833Z,1012.92
2019-06-26T06:53:18.205Z,1012.99
2019-06-26T06:55:16.468Z,1012.94
2019-06-26T06:56:16.061Z,1012.93
2019-06-26T06:57:16.029Z,1012.96
2019-06-26T06:58:16.328Z,1012.95
2019-06-26T06:59:16.048Z,1012.94
2019-06-26T07:00:16.162Z,1012.96
2019-06-26T07:01:16.048Z,1013.00
2019-06-26T07:02:16.298Z,1012.97
2019-06-26T07:03:16.205Z,1012.97
2019-06-26T07:04:16.296Z,1013.02
2019-06-26T07:05:16.131Z,1012.99
2019-06-26T07:06:21.514Z,1013.06
2019-06-26T07:09:18.038Z,1013.04
2019-06-26T07:10:17.500Z,1013.07
2019-06-26T07:19:15.856Z,1013.19
2019-06-26T07:20:16.304Z,1013.18
2019-06-26T07:21:15.866Z,1013.22
2019-06-26T07:22:16.047Z,1013.23
2019-06-26T07:23:16.692Z,1013.24
2019-06-26T07:24:15.854Z,1013.23
2019-06-26T07:26:15.809Z,1013.26
2019-06-26T07:27:20.910Z,1013.28
2019-06-26T07:28:15.825Z,1013.29
2019-06-26T07:29:15.807Z,1013.31
2019-06-26T07:30:16.082Z,1013.30
2019-06-26T07:31:16.307Z,1013.35
2019-06-26T07:32:15.749Z,1013.33
2019-06-26T07:33:15.933Z,1013.35
2019-06-26T07:35:15.766Z,1013.38
2019-06-26T07:37:16.904Z,1013.39
2019-06-26T07:38:15.949Z,1013.47
2019-06-26T07:39:15.743Z,1013.47
2019-06-26T07:40:15.722Z,1013.52
2019-06-26T07:41:16.495Z,1013.45
2019-06-26T07:42:15.653Z,1013.49
2019-06-26T07:43:16.754Z,1013.54
2019-06-26T07:44:15.638Z,1013.53
2019-06-26T07:45:15.654Z,1013.53
2019-06-26T07:46:15.626Z,1013.57
2019-06-26T07:48:16.457Z,1013.54
2019-06-26T07:49:16.016Z,1013.60
2019-06-26T07:50:16.539Z,1013.63
2019-06-26T07:51:15.592Z,1013.60
2019-06-26T07:53:15.578Z,1013.62
2019-06-26T07:54:15.992Z,1013.62
2019-06-26T07:55:15.590Z,1013.65
2019-06-26T07:59:17.950Z,1013.67
2019-06-26T08:00:15.516Z,1013.67
2019-06-26T08:04:15.643Z,1013.66
2019-06-26T08:05:15.822Z,1013.72
2019-06-26T08:07:15.465Z,1013.73
2019-06-26T08:08:15.483Z,1013.66
2019-06-26T08:09:15.552Z,1013.71
2019-06-26T08:10:15.458Z,1013.71
2019-06-26T08:11:15.870Z,1013.69
2019-06-26T08:12:15.497Z,1013.69
2019-06-26T08:13:16.577Z,1013.70
2019-06-26T08:14:15.665Z,1013.71
2019-06-26T08:15:15.705Z,1013.73
2019-06-26T08:16:15.699Z,1013.74
2019-06-26T08:17:15.769Z,1013.77
2019-06-26T08:18:17.229Z,1013.78
2019-06-26T08:20:15.721Z,1013.76
2019-06-26T08:23:16.531Z,1013.75
2019-06-26T08:24:15.702Z,1013.72
2019-06-26T08:25:15.365Z,1013.77
2019-06-26T08:26:15.509Z,1013.78
2019-06-26T08:27:15.365Z,1013.75
2019-06-26T08:29:15.349Z,1013.76
2019-06-26T08:30:15.338Z,1013.77
2019-06-26T08:32:15.391Z,1013.80
2019-06-26T08:33:15.320Z,1013.81
2019-06-26T08:34:15.325Z,1013.76
2019-06-26T08:35:15.553Z,1013.75
2019-06-26T08:36:15.306Z,1013.76
2019-06-26T08:37:15.522Z,1013.70
2019-06-26T08:38:15.942Z,1013.75
2019-06-26T08:39:15.348Z,1013.74
2019-06-26T08:40:15.285Z,1013.79
2019-06-26T08:41:15.278Z,1013.79
2019-06-26T08:44:15.609Z,1013.81
2019-06-26T08:45:15.310Z,1013.88
2019-06-26T08:46:15.281Z,1013.85
2019-06-26T08:47:15.337Z,1013.89
2019-06-26T08:48:23.151Z,1013.91
2019-06-26T08:49:25.484Z,1013.88
2019-06-26T08:50:15.344Z,1013.89
2019-06-26T08:51:15.649Z,1013.91
2019-06-26T08:52:15.237Z,1013.93
2019-06-26T08:53:15.393Z,1013.96
2019-06-26T08:54:15.210Z,1013.96
2019-06-26T08:55:15.275Z,1013.98
2019-06-26T08:56:15.214Z,1014.01
2019-06-26T08:57:15.349Z,1014.00
2019-06-26T08:58:15.486Z,1013.97
2019-06-26T08:59:15.440Z,1013.98
2019-06-26T09:00:15.240Z,1014.04
2019-06-26T09:01:15.218Z,1014.08
2019-06-26T09:02:15.195Z,1014.01
2019-06-26T09:03:15.449Z,1015.84
2019-06-26T09:04:15.226Z,1014.08
2019-06-26T09:05:15.447Z,1014.18
2019-06-26T09:06:15.252Z,1014.13
2019-06-26T09:07:15.144Z,1014.08
2019-06-26T09:08:15.169Z,1014.13
2019-06-26T09:09:15.127Z,1014.16
2019-06-26T09:10:15.146Z,1014.11
2019-06-26T09:11:15.132Z,1014.12
2019-06-26T09:12:15.521Z,1014.18
2019-06-26T09:14:15.229Z,1014.33
2019-06-26T09:15:15.129Z,1014.24
2019-06-26T09:18:15.493Z,1014.21
2019-06-26T09:19:15.429Z,1014.19
2019-06-26T09:20:15.233Z,1014.24
2019-06-26T09:21:15.317Z,1017.08
2019-06-26T09:22:15.688Z,1017.69
2019-06-26T09:23:15.194Z,1014.28
2019-06-26T09:24:15.770Z,1014.37
2019-06-26T09:25:22.081Z,1018.18
2019-06-26T09:27:15.362Z,1014.33
2019-06-26T09:28:15.105Z,1017.66
2019-06-26T09:29:15.089Z,1017.81
2019-06-26T09:30:15.429Z,1014.33
2019-06-26T09:31:15.085Z,1014.36
2019-06-26T09:33:15.096Z,1014.44
2019-06-26T09:34:15.067Z,1014.38
2019-06-26T09:35:15.075Z,1018.76
2019-06-26T09:36:15.357Z,1014.44
2019-06-26T09:37:15.297Z,1014.38
2019-06-26T09:38:15.035Z,1014.42
2019-06-26T09:39:15.041Z,1014.38
2019-06-26T09:40:15.031Z,1017.24
2019-06-26T09:41:15.112Z,1014.42
2019-06-26T09:42:19.360Z,1015.21
2019-06-26T09:43:15.029Z,1018.63
2019-06-26T09:44:15.045Z,1019.19
2019-06-26T09:45:15.029Z,1019.54
2019-06-26T09:46:15.027Z,1014.42
2019-06-26T09:47:15.728Z,1018.38
2019-06-26T09:48:16.000Z,1014.50
2019-06-26T09:49:15.244Z,1020.04
2019-06-26T09:52:15.003Z,1020.06
2019-06-26T09:53:15.055Z,1020.34
2019-06-26T09:54:15.329Z,1019.88
2019-06-26T09:56:15.046Z,1019.68
2019-06-26T09:58:15.386Z,1020.25
2019-06-26T09:59:15.003Z,1018.04
2019-06-26T10:00:15.329Z,1019.73
2019-06-26T10:01:14.989Z,1019.36
2019-06-26T10:02:15.002Z,1014.79
2019-06-26T10:03:15.039Z,1019.15
2019-06-26T10:04:14.993Z,1014.64
2019-06-26T10:05:14.995Z,1014.69
2019-06-26T10:06:14.984Z,1014.62
2019-06-26T10:07:15.368Z,1014.73
2019-06-26T10:08:15.044Z,1019.37
2019-06-26T10:09:15.000Z,1016.38
2019-06-26T10:10:14.993Z,1019.07
2019-06-26T10:11:14.989Z,1018.89
2019-06-26T10:12:14.989Z,1018.38
2019-06-26T10:13:14.985Z,1018.00
2019-06-26T10:15:15.039Z,1018.14
2019-06-26T10:16:15.088Z,1018.00
2019-06-26T10:17:14.994Z,1017.93
2019-06-26T10:18:15.070Z,1016.20
2019-06-26T10:19:15.807Z,1017.34
2019-06-26T10:20:18.770Z,1017.25
2019-06-26T10:23:15.043Z,1016.57
2019-06-26T10:24:15.147Z,1016.64
2019-06-26T10:25:15.009Z,1016.37
2019-06-26T10:27:15.028Z,1016.06
2019-06-26T10:28:15.300Z,1015.93
2019-06-26T10:29:15.005Z,1015.58
2019-06-26T10:30:14.980Z,1015.54
2019-06-26T10:32:15.032Z,1015.09
2019-06-26T10:35:15.340Z,1014.98
2019-06-26T10:36:14.993Z,1014.64
2019-06-26T10:38:15.135Z,1014.88
2019-06-26T10:39:16.043Z,1014.68
2019-06-26T10:40:16.410Z,1014.66
2019-06-26T10:41:14.986Z,1014.94
2019-06-26T10:42:15.306Z,1015.01
2019-06-26T10:43:15.313Z,1014.94
2019-06-26T10:44:14.987Z,1014.96
2019-06-26T10:45:14.971Z,1015.09
2019-06-26T10:46:14.976Z,1015.11
2019-06-26T10:47:14.991Z,1015.18
2019-06-26T10:49:26.464Z,1015.39
2019-06-26T10:50:15.005Z,1015.33
2019-06-26T10:51:15.385Z,1015.30
2019-06-26T10:52:14.998Z,1015.31
2019-06-26T10:53:14.977Z,1015.57
2019-06-26T10:56:15.343Z,1015.57
2019-06-26T10:57:14.989Z,1015.51
2019-06-26T11:00:14.990Z,1015.61
2019-06-26T11:01:15.110Z,1015.66
2019-06-26T11:03:15.288Z,1015.66
2019-06-26T11:04:15.370Z,1015.70
2019-06-26T11:05:15.022Z,1015.77
2019-06-26T11:06:14.988Z,1015.68
2019-06-26T11:08:14.985Z,1015.66
2019-06-26T11:09:15.505Z,1015.65
2019-06-26T11:12:15.386Z,1015.64
2019-06-26T11:13:15.208Z,1015.69
2019-06-26T11:14:15.013Z,1015.71
2019-06-26T11:15:15.376Z,1015.64
2019-06-26T11:16:15.045Z,1015.43
2019-06-26T11:17:14.999Z,1015.66
2019-06-26T11:18:14.995Z,1015.54
2019-06-26T11:19:15.002Z,1015.69
2019-06-26T11:20:15.045Z,1015.76
2019-06-26T11:21:15.308Z,1015.68
2019-06-26T11:22:15.002Z,1015.65
2019-06-26T11:23:15.047Z,1015.63
2019-06-26T11:27:15.523Z,1015.81
2019-06-26T11:28:15.024Z,1015.69
2019-06-26T11:30:15.039Z,1015.80
2019-06-26T11:31:15.072Z,1015.89
2019-06-26T11:32:15.220Z,1015.85
2019-06-26T11:33:15.343Z,1015.96
2019-06-26T11:34:15.049Z,1015.98
2019-06-26T11:35:15.025Z,1015.91
2019-06-26T11:36:15.026Z,1015.89
2019-06-26T11:37:15.024Z,1015.84
2019-06-26T11:38:15.078Z,1015.58
2019-06-26T11:39:15.355Z,1015.91
2019-06-26T11:40:15.041Z,1015.64
2019-06-26T11:41:15.027Z,1015.96
2019-06-26T11:42:15.035Z,1016.01
2019-06-26T11:43:15.043Z,1016.10
2019-06-26T11:44:15.041Z,1015.92
2019-06-26T11:45:15.352Z,1015.89
2019-06-26T11:46:15.128Z,1015.87
2019-06-26T11:47:15.203Z,1015.91
2019-06-26T11:48:15.045Z,1015.91
2019-06-26T11:51:15.057Z,1015.80
2019-06-26T11:52:15.522Z,1015.73
2019-06-26T11:54:15.056Z,1015.80
2019-06-26T11:56:15.659Z,1015.72
2019-06-26T11:57:15.054Z,1015.52
2019-06-26T12:00:15.076Z,1015.58
2019-06-26T12:01:15.077Z,1015.53
2019-06-26T12:02:15.077Z,1015.60
2019-06-26T12:03:15.058Z,1015.58
2019-06-26T12:04:15.082Z,1015.63
2019-06-26T12:05:15.064Z,1015.65
2019-06-26T12:07:15.059Z,1015.65
2019-06-26T12:08:18.322Z,1015.64
2019-06-26T12:09:15.071Z,1015.60
2019-06-26T12:10:15.154Z,1015.55
2019-06-26T12:11:15.084Z,1015.54
2019-06-26T12:12:15.089Z,1015.57
2019-06-26T12:13:15.378Z,1015.52
2019-06-26T12:15:15.247Z,1015.68
2019-06-26T12:16:15.118Z,1015.66
2019-06-26T12:17:15.103Z,1015.75
2019-06-26T12:18:15.100Z,1015.71
2019-06-26T12:19:18.663Z,1015.78
2019-06-26T12:20:19.417Z,1015.71
2019-06-26T12:21:15.081Z,1015.74
2019-06-26T12:22:15.088Z,1015.79
2019-06-26T12:24:15.108Z,1015.73
2019-06-26T12:25:15.102Z,1015.76
2019-06-26T12:26:15.175Z,1015.76
2019-06-26T12:27:15.398Z,1015.72
2019-06-26T12:28:15.109Z,1015.72
2019-06-26T12:29:15.102Z,1015.69
2019-06-26T12:30:15.102Z,1015.66
2019-06-26T12:31:15.507Z,1015.63
2019-06-26T12:32:15.229Z,1015.62
2019-06-26T12:33:15.116Z,1015.66
2019-06-26T12:34:15.478Z,1015.66
2019-06-26T12:35:15.110Z,1015.67
2019-06-26T12:36:15.124Z,1015.63
2019-06-26T12:37:15.178Z,1015.62
2019-06-26T12:38:15.142Z,1015.31
2019-06-26T12:39:15.141Z,1015.68
2019-06-26T12:40:15.344Z,1015.62
2019-06-26T12:41:15.423Z,1015.62
2019-06-26T12:42:15.139Z,1015.65
2019-06-26T12:43:15.213Z,1015.70
2019-06-26T12:44:15.127Z,1015.50
2019-06-26T12:45:15.191Z,1015.65
2019-06-26T12:46:18.116Z,1015.60
2019-06-26T12:47:15.161Z,1015.60
2019-06-26T12:48:16.333Z,1015.53
2019-06-26T12:49:15.181Z,1015.54
2019-06-26T12:50:15.135Z,1015.57
2019-06-26T12:51:15.143Z,1015.56
2019-06-26T12:52:17.074Z,1015.30
2019-06-26T12:53:15.605Z,1015.48
2019-06-26T12:54:15.142Z,1015.61
2019-06-26T12:55:15.149Z,1015.64
2019-06-26T12:56:15.293Z,1015.44
2019-06-26T12:57:15.225Z,1015.32
2019-06-26T12:58:19.647Z,1015.56
2019-06-26T12:59:15.449Z,1015.27
2019-06-26T13:00:15.213Z,1015.44
2019-06-26T13:01:15.144Z,1015.19
2019-06-26T13:02:15.201Z,1015.25
2019-06-26T13:03:15.214Z,1015.62
2019-06-26T13:04:15.786Z,1015.57
2019-06-26T13:05:15.443Z,1015.24
2019-06-26T13:06:15.195Z,1015.25
2019-06-26T13:07:15.159Z,1015.24
2019-06-26T13:08:15.171Z,1015.24
2019-06-26T13:09:15.152Z,1015.31
2019-06-26T13:10:15.159Z,1015.71
2019-06-26T13:11:15.926Z,1015.25
2019-06-26T13:12:15.140Z,1015.42
2019-06-26T13:13:15.173Z,1015.24
2019-06-26T13:14:15.171Z,1015.65
2019-06-26T13:15:15.396Z,1015.25
2019-06-26T13:16:15.149Z,1015.66
2019-06-26T13:17:15.506Z,1015.24
2019-06-26T13:18:15.146Z,1015.34
2019-06-26T13:19:15.170Z,1015.71
2019-06-26T13:20:15.144Z,1015.42
2019-06-26T13:21:15.371Z,1015.60
2019-06-26T13:22:15.276Z,1015.27
2019-06-26T13:23:15.560Z,1015.14
2019-06-26T13:25:16.082Z,1015.38
2019-06-26T13:26:15.222Z,1015.58
2019-06-26T13:27:16.540Z,1015.31
2019-06-26T13:28:15.153Z,1015.21
2019-06-26T13:29:15.493Z,1015.26
2019-06-26T13:30:15.251Z,1015.45
2019-06-26T13:31:15.133Z,1015.25
2019-06-26T13:32:16.770Z,1015.19
2019-06-26T13:33:15.114Z,1015.20
2019-06-26T13:35:15.692Z,1015.44
2019-06-26T13:36:15.109Z,1015.56
2019-06-26T13:37:15.519Z,1015.30
2019-06-26T13:39:15.108Z,1015.20
2019-06-26T13:40:15.103Z,1015.47
2019-06-26T13:41:15.812Z,1015.14
2019-06-26T13:42:15.407Z,1015.18
2019-06-26T13:43:15.116Z,1015.22
2019-06-26T13:44:15.112Z,1015.38
2019-06-26T13:45:15.131Z,1015.20
2019-06-26T13:46:15.109Z,1015.18
2019-06-26T13:48:15.350Z,1015.20
2019-06-26T13:49:16.605Z,1015.16
2019-06-26T13:50:15.126Z,1015.18
2019-06-26T13:51:15.141Z,1015.22
2019-06-26T13:53:15.098Z,1015.28
2019-06-26T13:54:15.086Z,1015.28
2019-06-26T13:55:15.079Z,1015.13
2019-06-26T13:56:15.465Z,1015.15
2019-06-26T13:57:15.959Z,1015.15
2019-06-26T14:01:15.176Z,1015.16
2019-06-26T14:02:15.249Z,1015.14
2019-06-26T14:04:15.659Z,1015.30
2019-06-26T14:06:15.095Z,1015.06
2019-06-26T14:07:15.059Z,1014.96
2019-06-26T14:10:15.396Z,1015.16
2019-06-26T14:11:15.456Z,1015.07
2019-06-26T14:12:19.035Z,1015.18
2019-06-26T14:13:15.081Z,1015.11
2019-06-26T14:14:15.636Z,1015.21
2019-06-26T14:15:15.163Z,1015.13
2019-06-26T14:16:15.107Z,1015.14
2019-06-26T14:17:15.329Z,1015.13
2019-06-26T14:18:15.009Z,1015.20
2019-06-26T14:19:15.054Z,1015.15
2019-06-26T14:20:15.034Z,1015.34
2019-06-26T14:21:24.955Z,1015.13
2019-06-26T14:23:14.999Z,1015.26
2019-06-26T14:24:15.716Z,1015.34
2019-06-26T14:25:15.020Z,1015.17